createdAt,value
2022-10-13T00:00:47.200Z,36.38
2022-10-13T00:03:15.064Z,33.70
2022-10-13T00:05:43.271Z,34.55
2022-10-13T00:08:13.487Z,33.05
2022-10-13T00:10:47.053Z,33.65
2022-10-13T00:13:15.319Z,33.70
2022-10-13T00:15:44.370Z,38.95
2022-10-13T00:18:12.167Z,40.30
2022-10-13T00:20:42.084Z,33.75
2022-10-13T00:23:10.054Z,35.47
2022-10-13T00:25:43.226Z,32.58
2022-10-13T00:28:11.443Z,32.20
2022-10-13T00:30:40.812Z,37.45
2022-10-13T00:33:09.123Z,29.92
2022-10-13T00:35:41.312Z,32.28
2022-10-13T00:38:09.260Z,33.55
2022-10-13T00:40:45.375Z,40.90
2022-10-13T00:43:16.520Z,33.88
2022-10-13T00:45:44.306Z,35.10
2022-10-13T00:48:12.324Z,32.80
2022-10-13T00:50:42.373Z,33.58
2022-10-13T00:53:11.154Z,30.75
2022-10-13T00:55:40.110Z,37.08
2022-10-13T00:58:11.514Z,34.45
2022-10-13T01:00:39.805Z,38.00
2022-10-13T01:03:07.578Z,33.22
2022-10-13T01:08:03.823Z,33.50
2022-10-13T01:10:37.318Z,33.00
2022-10-13T01:13:10.404Z,40.38
2022-10-13T01:15:41.694Z,31.48
2022-10-13T01:18:12.381Z,37.25
2022-10-13T01:20:51.814Z,33.90
2022-10-13T01:23:37.003Z,32.05
2022-10-13T01:26:17.315Z,32.92
2022-10-13T01:29:03.645Z,30.17
2022-10-13T01:31:35.781Z,32.88
2022-10-13T01:34:07.540Z,33.03
2022-10-13T01:36:39.553Z,43.90
2022-10-13T01:39:10.660Z,36.22
2022-10-13T01:41:39.973Z,35.75
2022-10-13T01:44:12.992Z,34.95
2022-10-13T01:46:45.196Z,35.17
2022-10-13T01:49:15.129Z,36.22
2022-10-13T01:51:43.436Z,36.83
2022-10-13T01:54:11.268Z,36.83
2022-10-13T01:56:39.326Z,30.00
2022-10-13T01:59:09.658Z,37.53
2022-10-13T02:01:46.750Z,29.38
2022-10-13T02:04:22.413Z,32.30
2022-10-13T02:06:53.066Z,31.48
2022-10-13T02:09:24.363Z,33.67
2022-10-13T02:11:56.227Z,36.00
2022-10-13T02:14:26.639Z,41.65
2022-10-13T02:16:55.880Z,32.63
2022-10-13T02:19:25.471Z,39.05
2022-10-13T02:21:54.134Z,36.45
2022-10-13T02:24:21.874Z,36.50
2022-10-13T02:26:50.200Z,32.17
2022-10-13T02:29:20.226Z,33.97
2022-10-13T02:31:48.084Z,36.45
2022-10-13T02:34:16.144Z,35.47
2022-10-13T02:36:48.823Z,33.03
2022-10-13T02:39:17.800Z,34.17
2022-10-13T02:41:45.787Z,38.53
2022-10-13T02:44:13.719Z,44.90
2022-10-13T02:46:41.721Z,38.95
2022-10-13T02:49:10.618Z,34.20
2022-10-13T02:51:40.324Z,36.13
2022-10-13T02:54:10.194Z,39.10
2022-10-13T02:56:38.164Z,35.47
2022-10-13T02:59:05.975Z,41.70
2022-10-13T03:01:34.128Z,43.50
2022-10-13T03:04:01.866Z,44.78
2022-10-13T03:06:29.702Z,33.85
2022-10-13T03:08:57.496Z,37.20
2022-10-13T03:11:26.840Z,50.92
2022-10-13T03:13:54.810Z,38.90
2022-10-13T03:16:22.647Z,32.58
2022-10-13T03:18:50.482Z,30.05
2022-10-13T03:21:18.346Z,38.40
2022-10-13T03:23:46.145Z,37.63
2022-10-13T03:26:13.970Z,35.80
2022-10-13T03:28:43.330Z,40.78
2022-10-13T03:31:12.877Z,33.22
2022-10-13T03:33:41.153Z,38.97
2022-10-13T03:36:09.314Z,39.95
2022-10-13T03:38:37.535Z,35.35
2022-10-13T03:41:06.090Z,40.42
2022-10-13T03:43:34.527Z,35.97
2022-10-13T03:46:05.646Z,35.30
2022-10-13T03:48:34.078Z,35.60
2022-10-13T03:51:05.226Z,39.97
2022-10-13T03:53:33.342Z,35.45
2022-10-13T03:56:02.175Z,33.75
2022-10-13T03:58:32.962Z,32.05
2022-10-13T04:01:05.412Z,41.88
2022-10-13T04:03:35.603Z,34.85
2022-10-13T04:06:03.794Z,30.80
2022-10-13T04:08:32.374Z,39.13
2022-10-13T04:11:00.719Z,42.28
2022-10-13T04:13:28.784Z,45.83
2022-10-13T04:15:56.549Z,36.90
2022-10-13T04:18:25.915Z,36.88
2022-10-13T04:20:53.707Z,57.33
2022-10-13T04:23:21.543Z,57.33
2022-10-13T04:25:49.380Z,44.95
2022-10-13T04:28:17.705Z,35.92
2022-10-13T04:30:49.260Z,37.88
2022-10-13T04:33:17.608Z,42.35
2022-10-13T04:35:47.154Z,37.08
2022-10-13T04:38:15.992Z,35.20
2022-10-13T04:40:43.932Z,39.50
2022-10-13T04:43:11.734Z,34.90
2022-10-13T04:45:40.083Z,35.38
2022-10-13T04:48:09.931Z,36.85
2022-10-13T04:50:37.806Z,36.67
2022-10-13T04:53:07.156Z,40.10
2022-10-13T04:55:36.951Z,33.88
2022-10-13T04:58:05.144Z,42.75
2022-10-13T05:00:32.980Z,37.65
2022-10-13T05:03:00.979Z,38.80
2022-10-13T05:05:28.835Z,43.22
2022-10-13T05:07:56.614Z,43.65
2022-10-13T05:10:25.890Z,47.22
2022-10-13T05:12:54.759Z,36.42
2022-10-13T05:15:24.170Z,33.20
2022-10-13T05:17:52.305Z,48.90
2022-10-13T05:20:20.309Z,45.25
2022-10-13T05:22:48.101Z,49.15
2022-10-13T05:25:16.023Z,45.63
2022-10-13T05:27:46.448Z,44.85
2022-10-13T05:30:14.629Z,43.00
2022-10-13T05:32:42.386Z,44.45
2022-10-13T05:35:10.585Z,55.40
2022-10-13T05:37:41.507Z,42.60
2022-10-13T05:40:09.948Z,48.47
2022-10-13T05:42:38.040Z,46.00
2022-10-13T05:45:09.210Z,45.90
2022-10-13T05:47:37.242Z,40.50
2022-10-13T05:50:15.841Z,40.08
2022-10-13T05:52:44.428Z,41.90
2022-10-13T05:55:20.266Z,42.67
2022-10-13T05:57:50.814Z,43.95
2022-10-13T06:00:22.134Z,42.55
2022-10-13T06:02:51.241Z,37.00
2022-10-13T06:05:20.830Z,41.83
2022-10-13T06:07:53.583Z,48.45
2022-10-13T06:10:22.847Z,46.15
2022-10-13T06:12:50.793Z,36.33
2022-10-13T06:15:18.641Z,31.98
2022-10-13T06:17:47.761Z,39.47
2022-10-13T06:20:16.054Z,38.45
2022-10-13T06:22:43.932Z,36.03
2022-10-13T06:25:11.978Z,50.10
2022-10-13T06:27:39.994Z,35.33
2022-10-13T06:30:08.574Z,38.22
2022-10-13T06:32:38.181Z,36.20
2022-10-13T06:35:08.276Z,35.20
2022-10-13T06:37:36.057Z,36.47
2022-10-13T06:40:05.656Z,36.13
2022-10-13T06:42:34.804Z,33.90
2022-10-13T06:45:10.258Z,34.92
2022-10-13T06:47:41.892Z,32.63
2022-10-13T06:50:11.542Z,34.53
2022-10-13T06:52:39.900Z,32.63
2022-10-13T06:55:08.011Z,38.42
2022-10-13T06:57:35.941Z,28.83
2022-10-13T07:00:07.608Z,35.53
2022-10-13T07:02:36.232Z,28.05
2022-10-13T07:05:04.404Z,30.92
2022-10-13T07:07:33.612Z,32.63
2022-10-13T07:10:01.519Z,34.75
2022-10-13T07:12:29.759Z,47.33
2022-10-13T07:14:57.672Z,39.80
2022-10-13T07:17:26.581Z,34.28
2022-10-13T07:19:57.807Z,35.47
2022-10-13T07:22:27.032Z,35.67
2022-10-13T07:24:56.430Z,33.53
2022-10-13T07:27:26.275Z,38.72
2022-10-13T07:29:54.211Z,31.20
2022-10-13T07:32:22.281Z,31.65
2022-10-13T07:34:53.252Z,39.70
2022-10-13T07:37:21.784Z,40.35
2022-10-13T07:39:49.901Z,33.03
2022-10-13T07:42:19.478Z,27.75
2022-10-13T07:44:47.630Z,33.55
2022-10-13T07:47:15.405Z,30.27
2022-10-13T07:49:44.351Z,33.60
2022-10-13T07:52:12.328Z,36.42
2022-10-13T07:54:40.118Z,27.23
2022-10-13T07:57:08.023Z,27.02
2022-10-13T07:59:37.268Z,25.48
2022-10-13T08:02:05.439Z,29.98
2022-10-13T08:04:33.435Z,30.23
2022-10-13T08:07:02.379Z,39.13
2022-10-13T08:09:30.476Z,33.75
2022-10-13T08:12:00.863Z,29.42
2022-10-13T08:14:30.300Z,33.33
2022-10-13T08:16:59.743Z,26.73
2022-10-13T08:19:29.078Z,29.35
2022-10-13T08:21:58.849Z,38.75
2022-10-13T08:24:28.599Z,22.42
2022-10-13T08:26:56.450Z,29.63
2022-10-13T08:29:24.747Z,29.65
2022-10-13T08:31:53.514Z,29.83
2022-10-13T08:34:23.546Z,26.42
2022-10-13T08:36:54.831Z,29.60
2022-10-13T08:39:25.023Z,24.20
2022-10-13T08:41:53.690Z,37.55
2022-10-13T08:45:02.606Z,31.17
2022-10-13T08:47:16.474Z,33.72
2022-10-13T08:49:46.371Z,25.52
2022-10-13T08:52:18.460Z,24.48
2022-10-13T08:54:46.561Z,24.45
2022-10-13T08:57:15.240Z,20.38
2022-10-13T08:59:43.276Z,18.35
2022-10-13T09:02:13.170Z,15.07
2022-10-13T09:04:42.029Z,24.58
2022-10-13T09:07:15.054Z,13.43
2022-10-13T09:09:43.079Z,22.02
2022-10-13T09:12:12.209Z,18.52
2022-10-13T09:14:40.859Z,26.27
2022-10-13T09:17:17.742Z,22.60
2022-10-13T09:19:46.439Z,23.60
2022-10-13T09:22:24.167Z,16.05
2022-10-13T09:25:05.674Z,12.95
2022-10-13T09:27:42.446Z,18.00
2022-10-13T09:30:25.827Z,20.45
2022-10-13T09:32:57.154Z,22.63
2022-10-13T09:35:25.123Z,22.45
2022-10-13T09:38:04.531Z,18.45
2022-10-13T09:40:32.889Z,17.30
2022-10-13T09:43:02.006Z,24.63
2022-10-13T09:45:31.129Z,27.20
2022-10-13T09:48:00.088Z,17.92
2022-10-13T09:50:29.097Z,14.40
2022-10-13T09:53:11.634Z,34.20
2022-10-13T09:55:41.405Z,29.92
2022-10-13T09:58:13.780Z,22.42
2022-10-13T10:00:42.819Z,22.42
2022-10-13T10:03:14.413Z,21.25
2022-10-13T10:05:45.858Z,14.65
2022-10-13T10:08:16.460Z,21.77
2022-10-13T10:10:47.400Z,21.80
2022-10-13T10:13:21.089Z,22.95
2022-10-13T10:15:51.860Z,21.98
2022-10-13T10:18:22.514Z,16.50
2022-10-13T10:20:57.867Z,23.92
2022-10-13T10:23:31.305Z,18.67
2022-10-13T10:26:02.522Z,15.82
2022-10-13T10:28:38.927Z,17.05
2022-10-13T10:31:12.822Z,29.33
2022-10-13T10:33:46.507Z,16.05
2022-10-13T10:36:17.900Z,15.68
2022-10-13T10:38:51.895Z,19.70
2022-10-13T10:41:27.975Z,19.42
2022-10-13T10:43:57.008Z,21.23
2022-10-13T10:46:25.335Z,15.25
2022-10-13T10:48:55.626Z,16.52
2022-10-13T10:51:26.204Z,21.55
2022-10-13T10:53:55.726Z,23.80
2022-10-13T10:56:28.495Z,35.75
2022-10-13T10:59:03.819Z,16.25
2022-10-13T11:01:34.837Z,19.90
2022-10-13T11:04:18.313Z,15.50
2022-10-13T11:06:46.138Z,15.60
2022-10-13T11:09:13.914Z,23.33
2022-10-13T11:11:43.725Z,17.38
2022-10-13T11:14:32.747Z,12.60
2022-10-13T11:17:21.926Z,17.58
2022-10-13T11:19:50.434Z,18.83
2022-10-13T11:22:19.659Z,23.90
2022-10-13T11:24:48.994Z,15.65
2022-10-13T11:27:25.749Z,18.92
2022-10-13T11:29:56.438Z,16.80
2022-10-13T11:32:45.016Z,15.57
2022-10-13T11:35:21.424Z,17.42
2022-10-13T11:38:05.991Z,13.60
2022-10-13T11:40:36.280Z,17.95
2022-10-13T11:43:21.852Z,15.30
2022-10-13T11:45:58.854Z,12.75
2022-10-13T11:48:41.775Z,10.93
2022-10-13T11:51:16.442Z,19.25
2022-10-13T11:53:48.502Z,14.57
2022-10-13T11:56:20.526Z,18.30
2022-10-13T11:58:48.608Z,17.98
2022-10-13T12:01:19.135Z,19.00
2022-10-13T12:03:48.137Z,15.38
2022-10-13T12:06:24.441Z,17.40
2022-10-13T12:08:53.206Z,14.00
2022-10-13T12:11:25.929Z,23.60
2022-10-13T12:13:54.095Z,22.45
2022-10-13T12:16:24.072Z,19.42
2022-10-13T12:18:52.147Z,20.30
2022-10-13T12:21:21.280Z,16.90
2022-10-13T12:23:49.358Z,26.50
2022-10-13T12:26:18.106Z,23.95
2022-10-13T12:28:50.123Z,21.13
2022-10-13T12:31:20.373Z,24.63
2022-10-13T12:33:54.962Z,19.25
2022-10-13T12:36:24.212Z,12.10
2022-10-13T12:38:53.269Z,17.85
2022-10-13T12:41:25.772Z,14.27
2022-10-13T12:43:54.376Z,12.07
2022-10-13T12:46:38.534Z,11.98
2022-10-13T12:49:08.500Z,19.58
2022-10-13T12:51:38.020Z,12.13
2022-10-13T12:54:09.796Z,15.60
2022-10-13T12:56:37.952Z,13.93
2022-10-13T12:59:06.035Z,16.95
2022-10-13T13:01:35.106Z,11.10
2022-10-13T13:04:04.027Z,17.58
2022-10-13T13:06:34.750Z,14.77
2022-10-13T13:09:09.992Z,16.00
2022-10-13T13:11:39.364Z,14.55
2022-10-13T13:14:34.150Z,13.52
2022-10-13T13:17:09.664Z,21.88
2022-10-13T13:19:38.173Z,17.55
2022-10-13T13:22:07.928Z,15.20
2022-10-13T13:24:40.100Z,15.90
2022-10-13T13:27:22.030Z,18.45
2022-10-13T13:29:50.500Z,19.35
2022-10-13T13:32:20.349Z,25.83
2022-10-13T13:34:49.343Z,24.80
2022-10-13T13:37:32.848Z,21.85
2022-10-13T13:40:01.347Z,12.80
2022-10-13T13:42:29.564Z,11.95
2022-10-13T13:44:57.371Z,21.10
2022-10-13T13:47:26.233Z,21.85
2022-10-13T13:49:54.691Z,14.63
2022-10-13T13:52:22.976Z,20.60
2022-10-13T13:54:52.712Z,26.08
2022-10-13T13:57:21.067Z,20.83
2022-10-13T13:59:49.375Z,14.80
2022-10-13T14:02:18.671Z,18.83
2022-10-13T14:04:46.802Z,11.88
2022-10-13T14:07:15.042Z,14.82
2022-10-13T14:09:43.112Z,12.63
2022-10-13T14:12:12.969Z,19.25
2022-10-13T14:14:40.793Z,18.92
2022-10-13T14:17:10.549Z,18.42
2022-10-13T14:19:38.354Z,14.35
2022-10-13T14:22:09.473Z,19.85
2022-10-13T14:24:37.743Z,15.50
2022-10-13T14:27:05.815Z,16.40
2022-10-13T14:29:35.134Z,20.05
2022-10-13T14:32:03.051Z,11.80
2022-10-13T14:34:31.281Z,16.85
2022-10-13T14:36:59.393Z,14.50
2022-10-13T14:39:27.352Z,14.23
2022-10-13T14:41:55.514Z,16.38
2022-10-13T14:44:24.590Z,20.98
2022-10-13T14:46:53.997Z,14.27
2022-10-13T14:49:21.939Z,21.73
2022-10-13T14:51:52.205Z,12.80
2022-10-13T14:54:20.067Z,23.92
2022-10-13T14:56:48.035Z,23.75
2022-10-13T14:59:16.128Z,18.05
2022-10-13T15:01:44.819Z,13.45
2022-10-13T15:04:14.133Z,17.35
2022-10-13T15:06:42.354Z,14.40
2022-10-13T15:09:11.899Z,16.38
2022-10-13T15:11:40.188Z,13.88
2022-10-13T15:14:09.767Z,17.50
2022-10-13T15:16:38.137Z,14.68
2022-10-13T15:19:06.440Z,15.80
2022-10-13T15:21:35.607Z,22.20
2022-10-13T15:24:04.505Z,32.00
2022-10-13T15:26:32.582Z,24.75
2022-10-13T15:29:00.379Z,26.48
2022-10-13T15:31:30.913Z,13.98
2022-10-13T15:33:58.936Z,20.85
2022-10-13T15:36:26.864Z,20.63
2022-10-13T15:38:56.314Z,19.40
2022-10-13T15:41:25.542Z,13.48
2022-10-13T15:43:54.058Z,25.23
2022-10-13T15:46:26.252Z,34.67
2022-10-13T15:48:55.822Z,22.55
2022-10-13T15:51:24.683Z,23.15
2022-10-13T15:53:52.559Z,26.65
2022-10-13T15:56:22.460Z,18.17
2022-10-13T15:58:50.410Z,19.27
2022-10-13T16:01:18.366Z,22.38
2022-10-13T16:03:46.422Z,17.77
2022-10-13T16:06:14.471Z,17.17
2022-10-13T16:08:44.045Z,19.35
2022-10-13T16:11:13.043Z,25.67
2022-10-13T16:13:42.753Z,18.70
2022-10-13T16:16:10.886Z,23.00
2022-10-13T16:18:39.384Z,27.55
2022-10-13T16:21:14.500Z,40.75
2022-10-13T16:23:46.243Z,51.50
2022-10-13T16:26:14.439Z,49.88
2022-10-13T16:28:43.687Z,28.73
2022-10-13T16:31:13.571Z,38.13
2022-10-13T16:33:43.465Z,60.00
2022-10-13T16:36:12.451Z,103.40
2022-10-13T16:38:41.326Z,90.30
2022-10-13T16:41:10.852Z,37.17
2022-10-13T16:43:39.211Z,28.75
2022-10-13T16:46:09.548Z,26.15
2022-10-13T16:48:37.418Z,25.38
2022-10-13T16:51:06.187Z,24.75
2022-10-13T16:53:36.726Z,27.40
2022-10-13T16:56:05.140Z,31.45
2022-10-13T16:58:33.170Z,26.35
2022-10-13T17:01:06.408Z,30.67
2022-10-13T17:03:35.780Z,26.92
2022-10-13T17:06:03.606Z,31.10
2022-10-13T17:08:32.110Z,37.80
2022-10-13T17:11:02.992Z,26.33
2022-10-13T17:13:32.143Z,29.08
2022-10-13T17:16:02.327Z,31.05
2022-10-13T17:18:30.161Z,32.17
2022-10-13T17:21:00.316Z,38.50
2022-10-13T17:23:28.607Z,31.52
2022-10-13T17:25:57.021Z,32.00
2022-10-13T17:28:25.059Z,43.00
2022-10-13T17:31:00.532Z,55.65
2022-10-13T17:33:29.422Z,34.88
2022-10-13T17:36:02.491Z,34.05
2022-10-13T17:38:30.580Z,32.65
2022-10-13T17:41:01.221Z,37.67
2022-10-13T17:43:29.192Z,39.13
2022-10-13T17:46:12.114Z,37.83
2022-10-13T17:48:46.030Z,40.47
2022-10-13T17:51:16.104Z,39.10
2022-10-13T17:53:44.531Z,40.30
2022-10-13T17:56:16.616Z,38.03
2022-10-13T17:58:45.249Z,43.13
2022-10-13T18:01:16.126Z,35.45
2022-10-13T18:03:47.268Z,116.35
2022-10-13T18:06:17.467Z,113.47
2022-10-13T18:08:45.778Z,57.33
2022-10-13T18:11:15.038Z,34.55
2022-10-13T18:13:43.811Z,42.25
2022-10-13T18:16:12.759Z,46.30
2022-10-13T18:18:40.719Z,41.58
2022-10-13T18:21:09.066Z,38.53
2022-10-13T18:23:38.943Z,36.00
2022-10-13T18:26:07.992Z,40.75
2022-10-13T18:28:40.051Z,47.75
2022-10-13T18:31:11.278Z,31.27
2022-10-13T18:33:39.629Z,27.40
2022-10-13T18:36:15.317Z,29.50
2022-10-13T18:38:45.529Z,37.17
2022-10-13T18:41:13.725Z,29.60
2022-10-13T18:43:42.067Z,34.78
2022-10-13T18:46:11.226Z,43.72
2022-10-13T18:48:39.253Z,43.03
2022-10-13T18:51:08.279Z,35.72
2022-10-13T18:53:36.529Z,41.65
2022-10-13T18:56:07.344Z,41.97
2022-10-13T18:58:35.393Z,38.90
2022-10-13T19:01:03.509Z,43.45
2022-10-13T19:03:32.639Z,42.47
2022-10-13T19:06:00.626Z,38.50
2022-10-13T19:08:30.310Z,39.15
2022-10-13T19:10:58.670Z,38.63
2022-10-13T19:13:28.041Z,45.03
2022-10-13T19:16:00.429Z,44.60
2022-10-13T19:18:28.683Z,41.47
2022-10-13T19:20:56.973Z,48.42
2022-10-13T19:23:24.953Z,48.72
2022-10-13T19:25:53.005Z,45.22
2022-10-13T19:28:28.554Z,48.03
2022-10-13T19:31:01.113Z,44.58
2022-10-13T19:33:32.001Z,49.92
2022-10-13T19:36:02.972Z,66.97
2022-10-13T19:38:31.379Z,66.90
2022-10-13T19:41:02.662Z,73.97
2022-10-13T19:43:30.867Z,52.95
2022-10-13T19:46:00.238Z,47.67
2022-10-13T19:48:28.935Z,48.20
2022-10-13T19:50:57.458Z,50.50
2022-10-13T19:53:26.195Z,45.58
2022-10-13T19:55:55.321Z,43.85
2022-10-13T19:58:24.014Z,52.45
2022-10-13T20:00:51.983Z,46.42
2022-10-13T20:03:21.259Z,46.92
2022-10-13T20:05:51.840Z,41.35
2022-10-13T20:08:19.773Z,44.97
2022-10-13T20:10:47.614Z,45.95
2022-10-13T20:13:15.471Z,35.42
2022-10-13T20:15:45.044Z,46.53
2022-10-13T20:18:14.321Z,46.47
2022-10-13T20:20:44.283Z,40.35
2022-10-13T20:23:12.036Z,47.50
2022-10-13T20:25:40.829Z,43.95
2022-10-13T20:28:08.600Z,39.13
2022-10-13T20:30:40.129Z,32.85
2022-10-13T20:33:09.577Z,31.83
2022-10-13T20:35:37.360Z,40.15
2022-10-13T20:38:12.848Z,30.60
2022-10-13T20:40:41.984Z,41.22
2022-10-13T20:43:15.434Z,34.35
2022-10-13T20:45:43.233Z,31.92
2022-10-13T20:50:38.797Z,41.97
2022-10-13T20:53:08.661Z,38.63
2022-10-13T20:55:40.960Z,36.72
2022-10-13T20:58:09.722Z,38.60
2022-10-13T21:00:37.891Z,34.47
2022-10-13T21:03:05.884Z,65.45
2022-10-13T21:05:33.645Z,41.35
2022-10-13T21:08:01.841Z,54.50
2022-10-13T21:10:32.613Z,37.97
2022-10-13T21:13:00.464Z,32.85
2022-10-13T21:15:30.947Z,38.97
2022-10-13T21:17:58.808Z,33.88
2022-10-13T21:20:26.656Z,40.40
2022-10-13T21:22:54.590Z,45.10
2022-10-13T21:25:22.358Z,37.22
2022-10-13T21:27:53.507Z,33.70
2022-10-13T21:30:21.449Z,41.15
2022-10-13T21:32:49.304Z,32.95
2022-10-13T21:35:17.421Z,37.83
2022-10-13T21:37:45.334Z,32.60
2022-10-13T21:40:13.813Z,37.17
2022-10-13T21:42:41.657Z,35.63
2022-10-13T21:45:12.890Z,36.00
2022-10-13T21:47:40.734Z,35.65
2022-10-13T21:50:09.858Z,40.97
2022-10-13T21:52:38.336Z,34.53
2022-10-13T21:55:06.642Z,36.22
2022-10-13T21:57:34.551Z,34.75
2022-10-13T22:00:02.342Z,34.70
2022-10-13T22:02:41.834Z,38.33
2022-10-13T22:05:11.288Z,36.50
2022-10-13T22:07:39.333Z,35.13
2022-10-13T22:10:07.349Z,42.78
2022-10-13T22:12:35.280Z,40.90
2022-10-13T22:15:03.412Z,39.65
2022-10-13T22:17:32.116Z,39.97
2022-10-13T22:20:01.390Z,42.83
2022-10-13T22:22:31.103Z,40.60
2022-10-13T22:24:59.130Z,43.95
2022-10-13T22:27:29.017Z,37.40
2022-10-13T22:29:56.774Z,38.17
2022-10-13T22:34:52.110Z,37.00
2022-10-13T22:37:21.550Z,40.03
2022-10-13T22:39:49.594Z,42.65
2022-10-13T22:42:17.746Z,46.38
2022-10-13T22:44:45.509Z,49.95
2022-10-13T22:47:13.511Z,46.47
2022-10-13T22:49:41.219Z,43.17
2022-10-13T22:52:10.201Z,38.50
2022-10-13T22:54:39.469Z,38.08
2022-10-13T22:57:07.296Z,41.05
2022-10-13T22:59:35.272Z,37.10
2022-10-13T23:02:03.317Z,38.67
2022-10-13T23:04:32.471Z,37.60
2022-10-13T23:07:00.317Z,35.17
2022-10-13T23:09:28.201Z,43.28
2022-10-13T23:11:59.833Z,45.08
2022-10-13T23:14:28.722Z,46.72
2022-10-13T23:16:56.590Z,47.88
2022-10-13T23:19:24.560Z,44.95
2022-10-13T23:21:52.373Z,45.53
2022-10-13T23:24:20.216Z,41.42
2022-10-13T23:26:48.071Z,43.45
2022-10-13T23:29:17.862Z,37.88
2022-10-13T23:31:45.804Z,41.92
2022-10-13T23:34:13.714Z,39.95
2022-10-13T23:36:41.492Z,39.97
2022-10-13T23:39:09.511Z,40.97
2022-10-13T23:41:37.776Z,41.25
2022-10-13T23:44:05.881Z,45.90
2022-10-13T23:46:35.014Z,42.97
2022-10-13T23:49:02.916Z,44.88
2022-10-13T23:51:30.985Z,39.10
2022-10-13T23:53:59.490Z,46.05
2022-10-13T23:56:27.641Z,41.35
2022-10-13T23:58:55.500Z,35.20
